sensor_id;sensor_type;location;lat;lon;timestamp;pressure;altitude;pressure_sealevel;temperature;humidity
3668;BME280;24099;47.102;15.440;2023-12-07T00:02:14;97119.44;;;-0.07;100.00
3668;BME280;24099;47.102;15.440;2023-12-07T00:04:41;97128.56;;;-0.36;100.00
3668;BME280;24099;47.102;15.440;2023-12-07T00:07:12;97132.44;;;-0.19;100.00
3668;BME280;24099;47.102;15.440;2023-12-07T00:09:39;97122.94;;;-0.08;100.00
3668;BME280;24099;47.102;15.440;2023-12-07T00:12:08;97129.06;;;-0.09;100.00
3668;BME280;24099;47.102;15.440;2023-12-07T00:14:36;97119.91;;;-0.02;100.00
3668;BME280;24099;47.102;15.440;2023-12-07T00:17:04;97119.78;;;0.00;100.00
3668;BME280;24099;47.102;15.440;2023-12-07T00:19:31;97128.59;;;-0.03;100.00
3668;BME280;24099;47.102;15.440;2023-12-07T00:21:58;97121.56;;;-0.01;100.00
3668;BME280;24099;47.102;15.440;2023-12-07T00:24:26;97130.22;;;-0.13;100.00
3668;BME280;24099;47.102;15.440;2023-12-07T00:26:53;97124.25;;;-0.02;100.00
3668;BME280;24099;47.102;15.440;2023-12-07T00:29:22;97140.47;;;-0.22;100.00
3668;BME280;24099;47.102;15.440;2023-12-07T00:31:50;97135.63;;;-0.16;100.00
3668;BME280;24099;47.102;15.440;2023-12-07T00:34:18;97130.47;;;-0.16;100.00
3668;BME280;24099;47.102;15.440;2023-12-07T00:36:46;97140.22;;;-0.30;100.00
3668;BME280;24099;47.102;15.440;2023-12-07T00:39:13;97135.63;;;-0.27;100.00
3668;BME280;24099;47.102;15.440;2023-12-07T00:41:41;97138.44;;;-0.19;100.00
3668;BME280;24099;47.102;15.440;2023-12-07T00:44:09;97134.59;;;-0.24;100.00
3668;BME280;24099;47.102;15.440;2023-12-07T00:46:38;97129.75;;;-0.29;100.00
3668;BME280;24099;47.102;15.440;2023-12-07T00:49:06;97135.25;;;-0.45;100.00
3668;BME280;24099;47.102;15.440;2023-12-07T00:51:33;97138.50;;;-0.65;100.00
3668;BME280;24099;47.102;15.440;2023-12-07T00:54:01;97143.34;;;-0.49;100.00
3668;BME280;24099;47.102;15.440;2023-12-07T00:56:28;97130.44;;;-0.49;100.00
3668;BME280;24099;47.102;15.440;2023-12-07T00:58:56;97124.66;;;-0.64;100.00
3668;BME280;24099;47.102;15.440;2023-12-07T01:01:23;97135.03;;;-0.88;100.00
3668;BME280;24099;47.102;15.440;2023-12-07T01:03:53;97137.69;;;-0.65;100.00
3668;BME280;24099;47.102;15.440;2023-12-07T01:06:20;97129.56;;;-0.96;100.00
3668;BME280;24099;47.102;15.440;2023-12-07T01:08:48;97133.38;;;-0.89;100.00
3668;BME280;24099;47.102;15.440;2023-12-07T01:11:15;97137.00;;;-0.91;100.00
3668;BME280;24099;47.102;15.440;2023-12-07T01:13:43;97138.34;;;-0.75;100.00
3668;BME280;24099;47.102;15.440;2023-12-07T01:16:11;97137.59;;;-0.88;100.00
3668;BME280;24099;47.102;15.440;2023-12-07T01:18:38;97135.16;;;-1.13;100.00
3668;BME280;24099;47.102;15.440;2023-12-07T01:21:07;97145.38;;;-0.77;100.00
3668;BME280;24099;47.102;15.440;2023-12-07T01:23:35;97144.66;;;-0.79;100.00
3668;BME280;24099;47.102;15.440;2023-12-07T01:26:03;97147.13;;;-0.77;100.00
3668;BME280;24099;47.102;15.440;2023-12-07T01:28:30;97142.66;;;-0.86;100.00
3668;BME280;24099;47.102;15.440;2023-12-07T01:30:58;97144.13;;;-0.95;100.00
3668;BME280;24099;47.102;15.440;2023-12-07T01:33:25;97141.16;;;-0.78;100.00
3668;BME280;24099;47.102;15.440;2023-12-07T01:35:53;97145.13;;;-0.85;100.00
3668;BME280;24099;47.102;15.440;2023-12-07T01:38:22;97147.44;;;-0.93;100.00
3668;BME280;24099;47.102;15.440;2023-12-07T01:40:50;97156.44;;;-0.98;100.00
3668;BME280;24099;47.102;15.440;2023-12-07T01:43:18;97141.13;;;-0.89;100.00
3668;BME280;24099;47.102;15.440;2023-12-07T01:45:47;97150.75;;;-0.91;100.00
3668;BME280;24099;47.102;15.440;2023-12-07T01:48:15;97148.78;;;-0.76;100.00
3668;BME280;24099;47.102;15.440;2023-12-07T01:50:43;97145.03;;;-0.83;100.00
3668;BME280;24099;47.102;15.440;2023-12-07T01:53:11;97148.31;;;-0.81;100.00
3668;BME280;24099;47.102;15.440;2023-12-07T01:55:41;97145.34;;;-0.88;100.00
3668;BME280;24099;47.102;15.440;2023-12-07T01:58:09;97150.03;;;-0.93;100.00
3668;BME280;24099;47.102;15.440;2023-12-07T02:00:37;97147.19;;;-1.01;100.00
3668;BME280;24099;47.102;15.440;2023-12-07T02:03:05;97155.59;;;-1.10;100.00
3668;BME280;24099;47.102;15.440;2023-12-07T02:05:34;97149.78;;;-1.25;100.00
3668;BME280;24099;47.102;15.440;2023-12-07T02:08:02;97150.63;;;-1.13;100.00
3668;BME280;24099;47.102;15.440;2023-12-07T02:10:31;97148.22;;;-1.27;100.00
3668;BME280;24099;47.102;15.440;2023-12-07T02:12:59;97153.50;;;-1.05;100.00
3668;BME280;24099;47.102;15.440;2023-12-07T02:15:27;97145.59;;;-1.15;100.00
3668;BME280;24099;47.102;15.440;2023-12-07T02:18:01;97154.63;;;-1.20;100.00
3668;BME280;24099;47.102;15.440;2023-12-07T02:20:33;97163.03;;;-1.18;100.00
3668;BME280;24099;47.102;15.440;2023-12-07T02:23:07;97149.59;;;-1.11;100.00
3668;BME280;24099;47.102;15.440;2023-12-07T02:25:40;97156.22;;;-1.19;100.00
3668;BME280;24099;47.102;15.440;2023-12-07T02:28:46;97158.31;;;-1.48;100.00
3668;BME280;24099;47.102;15.440;2023-12-07T02:31:14;97165.91;;;-1.34;100.00
3668;BME280;24099;47.102;15.440;2023-12-07T02:33:41;97171.25;;;-1.24;100.00
3668;BME280;24099;47.102;15.440;2023-12-07T02:36:09;97172.81;;;-1.34;100.00
3668;BME280;24099;47.102;15.440;2023-12-07T02:38:38;97176.34;;;-1.35;100.00
3668;BME280;24099;47.102;15.440;2023-12-07T02:41:07;97176.00;;;-1.31;100.00
3668;BME280;24099;47.102;15.440;2023-12-07T02:43:35;97178.81;;;-1.34;100.00
3668;BME280;24099;47.102;15.440;2023-12-07T02:46:05;97181.44;;;-1.47;100.00
3668;BME280;24099;47.102;15.440;2023-12-07T02:48:33;97186.75;;;-1.37;100.00
3668;BME280;24099;47.102;15.440;2023-12-07T02:51:01;97184.88;;;-1.22;100.00
3668;BME280;24099;47.102;15.440;2023-12-07T02:53:29;97185.22;;;-1.40;100.00
3668;BME280;24099;47.102;15.440;2023-12-07T02:55:56;97188.78;;;-1.53;100.00
3668;BME280;24099;47.102;15.440;2023-12-07T02:58:24;97183.81;;;-1.56;100.00
3668;BME280;24099;47.102;15.440;2023-12-07T03:00:52;97195.31;;;-1.36;100.00
3668;BME280;24099;47.102;15.440;2023-12-07T03:03:21;97195.16;;;-1.59;100.00
3668;BME280;24099;47.102;15.440;2023-12-07T03:05:49;97191.66;;;-1.45;100.00
3668;BME280;24099;47.102;15.440;2023-12-07T03:08:16;97197.63;;;-1.45;100.00
3668;BME280;24099;47.102;15.440;2023-12-07T03:10:44;97207.16;;;-1.58;100.00
3668;BME280;24099;47.102;15.440;2023-12-07T03:13:12;97198.09;;;-1.76;100.00
3668;BME280;24099;47.102;15.440;2023-12-07T03:15:39;97196.94;;;-1.59;100.00
3668;BME280;24099;47.102;15.440;2023-12-07T03:18:07;97199.00;;;-1.52;100.00
3668;BME280;24099;47.102;15.440;2023-12-07T03:20:36;97199.34;;;-1.69;100.00
3668;BME280;24099;47.102;15.440;2023-12-07T03:23:04;97193.75;;;-1.63;100.00
3668;BME280;24099;47.102;15.440;2023-12-07T03:25:31;97192.13;;;-1.64;100.00
3668;BME280;24099;47.102;15.440;2023-12-07T03:27:59;97200.88;;;-1.66;100.00
3668;BME280;24099;47.102;15.440;2023-12-07T03:30:27;97201.72;;;-1.79;100.00
3668;BME280;24099;47.102;15.440;2023-12-07T03:32:56;97199.84;;;-1.77;100.00
3668;BME280;24099;47.102;15.440;2023-12-07T03:35:23;97199.66;;;-1.61;100.00
3668;BME280;24099;47.102;15.440;2023-12-07T03:37:52;97196.66;;;-1.67;100.00
3668;BME280;24099;47.102;15.440;2023-12-07T03:40:20;97195.84;;;-1.81;100.00
3668;BME280;24099;47.102;15.440;2023-12-07T03:42:48;97191.28;;;-1.77;100.00
3668;BME280;24099;47.102;15.440;2023-12-07T03:45:15;97206.03;;;-1.79;100.00
3668;BME280;24099;47.102;15.440;2023-12-07T03:47:43;97205.63;;;-1.73;100.00
3668;BME280;24099;47.102;15.440;2023-12-07T03:50:11;97193.66;;;-1.74;100.00
3668;BME280;24099;47.102;15.440;2023-12-07T03:52:38;97203.16;;;-1.62;100.00
3668;BME280;24099;47.102;15.440;2023-12-07T03:55:08;97208.97;;;-1.84;100.00
3668;BME280;24099;47.102;15.440;2023-12-07T03:57:36;97203.59;;;-1.81;100.00
3668;BME280;24099;47.102;15.440;2023-12-07T04:00:05;97210.50;;;-1.81;100.00
3668;BME280;24099;47.102;15.440;2023-12-07T04:02:37;97210.28;;;-1.78;100.00
3668;BME280;24099;47.102;15.440;2023-12-07T04:05:06;97209.13;;;-1.74;100.00
3668;BME280;24099;47.102;15.440;2023-12-07T04:07:33;97213.19;;;-2.08;100.00
3668;BME280;24099;47.102;15.440;2023-12-07T04:10:01;97214.09;;;-1.96;100.00
3668;BME280;24099;47.102;15.440;2023-12-07T04:12:33;97221.41;;;-1.78;100.00
3668;BME280;24099;47.102;15.440;2023-12-07T04:15:00;97223.28;;;-1.92;100.00
3668;BME280;24099;47.102;15.440;2023-12-07T04:17:28;97217.72;;;-1.86;100.00
3668;BME280;24099;47.102;15.440;2023-12-07T04:19:56;97231.34;;;-1.84;100.00
3668;BME280;24099;47.102;15.440;2023-12-07T04:22:23;97230.50;;;-1.97;100.00
3668;BME280;24099;47.102;15.440;2023-12-07T04:24:51;97229.19;;;-2.03;100.00
3668;BME280;24099;47.102;15.440;2023-12-07T04:27:19;97236.97;;;-2.30;100.00
3668;BME280;24099;47.102;15.440;2023-12-07T04:29:48;97234.84;;;-2.23;100.00
3668;BME280;24099;47.102;15.440;2023-12-07T04:32:15;97234.84;;;-1.98;100.00
3668;BME280;24099;47.102;15.440;2023-12-07T04:34:43;97232.22;;;-2.36;100.00
3668;BME280;24099;47.102;15.440;2023-12-07T04:37:11;97243.09;;;-2.05;100.00
3668;BME280;24099;47.102;15.440;2023-12-07T04:39:38;97247.72;;;-2.11;100.00
3668;BME280;24099;47.102;15.440;2023-12-07T04:42:07;97240.41;;;-2.04;100.00
3668;BME280;24099;47.102;15.440;2023-12-07T04:44:35;97243.63;;;-1.88;100.00
3668;BME280;24099;47.102;15.440;2023-12-07T04:47:04;97249.47;;;-1.98;100.00
3668;BME280;24099;47.102;15.440;2023-12-07T04:49:32;97249.56;;;-2.13;100.00
3668;BME280;24099;47.102;15.440;2023-12-07T04:51:59;97249.59;;;-1.87;100.00
3668;BME280;24099;47.102;15.440;2023-12-07T04:54:27;97242.03;;;-2.16;100.00
3668;BME280;24099;47.102;15.440;2023-12-07T04:56:55;97254.44;;;-2.08;100.00
3668;BME280;24099;47.102;15.440;2023-12-07T04:59:22;97253.50;;;-1.94;100.00
3668;BME280;24099;47.102;15.440;2023-12-07T05:01:50;97263.72;;;-1.93;100.00
3668;BME280;24099;47.102;15.440;2023-12-07T05:04:19;97261.03;;;-1.79;100.00
3668;BME280;24099;47.102;15.440;2023-12-07T05:06:47;97268.34;;;-1.98;100.00
3668;BME280;24099;47.102;15.440;2023-12-07T05:09:14;97268.16;;;-2.08;100.00
3668;BME280;24099;47.102;15.440;2023-12-07T05:11:42;97267.03;;;-2.03;100.00
3668;BME280;24099;47.102;15.440;2023-12-07T05:14:11;97277.16;;;-2.00;100.00
3668;BME280;24099;47.102;15.440;2023-12-07T05:16:39;97279.81;;;-1.89;100.00
3668;BME280;24099;47.102;15.440;2023-12-07T05:19:07;97278.28;;;-1.92;100.00
3668;BME280;24099;47.102;15.440;2023-12-07T05:21:38;97284.88;;;-2.00;100.00
3668;BME280;24099;47.102;15.440;2023-12-07T05:24:08;97296.94;;;-2.01;100.00
3668;BME280;24099;47.102;15.440;2023-12-07T05:26:35;97294.94;;;-2.23;100.00
3668;BME280;24099;47.102;15.440;2023-12-07T05:29:03;97297.53;;;-1.97;100.00
3668;BME280;24099;47.102;15.440;2023-12-07T05:31:30;97302.31;;;-1.91;100.00
3668;BME280;24099;47.102;15.440;2023-12-07T05:33:58;97300.69;;;-2.19;100.00
3668;BME280;24099;47.102;15.440;2023-12-07T05:36:26;97296.13;;;-2.01;100.00
3668;BME280;24099;47.102;15.440;2023-12-07T05:38:55;97310.19;;;-2.20;100.00
3668;BME280;24099;47.102;15.440;2023-12-07T05:41:22;97300.09;;;-2.23;100.00
3668;BME280;24099;47.102;15.440;2023-12-07T05:43:51;97315.69;;;-2.12;100.00
3668;BME280;24099;47.102;15.440;2023-12-07T05:46:19;97321.19;;;-1.91;100.00
3668;BME280;24099;47.102;15.440;2023-12-07T05:48:47;97307.03;;;-1.98;100.00
3668;BME280;24099;47.102;15.440;2023-12-07T05:51:15;97313.53;;;-2.05;100.00
3668;BME280;24099;47.102;15.440;2023-12-07T05:53:44;97309.31;;;-1.93;100.00
3668;BME280;24099;47.102;15.440;2023-12-07T05:56:18;97311.06;;;-1.94;100.00
3668;BME280;24099;47.102;15.440;2023-12-07T05:58:47;97311.28;;;-1.97;100.00
3668;BME280;24099;47.102;15.440;2023-12-07T06:01:17;97312.72;;;-1.93;100.00
3668;BME280;24099;47.102;15.440;2023-12-07T06:03:45;97317.56;;;-2.01;100.00
3668;BME280;24099;47.102;15.440;2023-12-07T06:06:13;97320.84;;;-1.99;100.00
3668;BME280;24099;47.102;15.440;2023-12-07T06:08:40;97318.50;;;-2.02;100.00
3668;BME280;24099;47.102;15.440;2023-12-07T06:11:09;97317.69;;;-1.90;100.00
3668;BME280;24099;47.102;15.440;2023-12-07T06:13:38;97321.81;;;-2.00;100.00
3668;BME280;24099;47.102;15.440;2023-12-07T06:16:05;97321.56;;;-2.10;100.00
3668;BME280;24099;47.102;15.440;2023-12-07T06:18:33;97323.56;;;-2.00;100.00
3668;BME280;24099;47.102;15.440;2023-12-07T06:21:01;97329.69;;;-2.16;100.00
3668;BME280;24099;47.102;15.440;2023-12-07T06:23:29;97336.50;;;-2.15;100.00
3668;BME280;24099;47.102;15.440;2023-12-07T06:25:57;97323.84;;;-2.05;100.00
3668;BME280;24099;47.102;15.440;2023-12-07T06:28:24;97333.97;;;-2.02;100.00
3668;BME280;24099;47.102;15.440;2023-12-07T06:30:54;97332.41;;;-2.04;100.00
3668;BME280;24099;47.102;15.440;2023-12-07T06:33:23;97325.88;;;-2.23;100.00
3668;BME280;24099;47.102;15.440;2023-12-07T06:35:50;97335.81;;;-2.04;100.00
3668;BME280;24099;47.102;15.440;2023-12-07T06:38:18;97335.47;;;-2.12;100.00
3668;BME280;24099;47.102;15.440;2023-12-07T06:40:46;97334.66;;;-2.13;100.00
3668;BME280;24099;47.102;15.440;2023-12-07T06:43:14;97335.03;;;-2.19;100.00
3668;BME280;24099;47.102;15.440;2023-12-07T06:45:44;97344.97;;;-2.39;100.00
3668;BME280;24099;47.102;15.440;2023-12-07T06:48:13;97339.44;;;-2.06;100.00
3668;BME280;24099;47.102;15.440;2023-12-07T06:50:42;97336.38;;;-2.26;100.00
3668;BME280;24099;47.102;15.440;2023-12-07T06:53:09;97348.59;;;-2.42;100.00
3668;BME280;24099;47.102;15.440;2023-12-07T06:55:42;97350.19;;;-2.27;100.00
3668;BME280;24099;47.102;15.440;2023-12-07T06:58:10;97343.47;;;-2.29;100.00
3668;BME280;24099;47.102;15.440;2023-12-07T07:00:38;97344.97;;;-2.39;100.00
3668;BME280;24099;47.102;15.440;2023-12-07T07:03:06;97352.22;;;-2.32;100.00
3668;BME280;24099;47.102;15.440;2023-12-07T07:05:35;97354.84;;;-2.19;100.00
3668;BME280;24099;47.102;15.440;2023-12-07T07:08:02;97358.13;;;-2.30;100.00
3668;BME280;24099;47.102;15.440;2023-12-07T07:10:32;97359.22;;;-2.34;100.00
3668;BME280;24099;47.102;15.440;2023-12-07T07:13:00;97353.75;;;-2.42;100.00
3668;BME280;24099;47.102;15.440;2023-12-07T07:15:29;97355.28;;;-2.39;100.00
3668;BME280;24099;47.102;15.440;2023-12-07T07:17:56;97356.63;;;-2.47;100.00
3668;BME280;24099;47.102;15.440;2023-12-07T07:20:24;97363.44;;;-2.46;100.00
3668;BME280;24099;47.102;15.440;2023-12-07T07:22:53;97367.16;;;-2.64;100.00
3668;BME280;24099;47.102;15.440;2023-12-07T07:25:21;97377.69;;;-2.54;100.00
3668;BME280;24099;47.102;15.440;2023-12-07T07:27:48;97372.84;;;-2.59;100.00
3668;BME280;24099;47.102;15.440;2023-12-07T07:30:16;97370.91;;;-2.55;100.00
3668;BME280;24099;47.102;15.440;2023-12-07T07:32:43;97370.06;;;-2.56;100.00
3668;BME280;24099;47.102;15.440;2023-12-07T07:35:11;97373.31;;;-2.39;100.00
3668;BME280;24099;47.102;15.440;2023-12-07T07:37:38;97376.28;;;-2.72;100.00
3668;BME280;24099;47.102;15.440;2023-12-07T07:40:10;97368.09;;;-2.65;100.00
3668;BME280;24099;47.102;15.440;2023-12-07T07:42:38;97380.22;;;-2.67;100.00
3668;BME280;24099;47.102;15.440;2023-12-07T07:45:07;97379.44;;;-2.55;100.00
3668;BME280;24099;47.102;15.440;2023-12-07T07:47:35;97372.28;;;-2.50;100.00
3668;BME280;24099;47.102;15.440;2023-12-07T07:50:03;97375.66;;;-2.49;100.00
3668;BME280;24099;47.102;15.440;2023-12-07T07:52:32;97377.13;;;-2.45;100.00
3668;BME280;24099;47.102;15.440;2023-12-07T07:55:00;97384.69;;;-2.42;100.00
3668;BME280;24099;47.102;15.440;2023-12-07T07:57:30;97390.50;;;-2.26;100.00
3668;BME280;24099;47.102;15.440;2023-12-07T07:59:58;97383.34;;;-2.35;100.00
3668;BME280;24099;47.102;15.440;2023-12-07T08:02:25;97392.00;;;-2.36;100.00
3668;BME280;24099;47.102;15.440;2023-12-07T08:04:53;97395.50;;;-2.37;100.00
3668;BME280;24099;47.102;15.440;2023-12-07T08:07:20;97386.66;;;-2.33;100.00
3668;BME280;24099;47.102;15.440;2023-12-07T08:09:48;97398.28;;;-2.40;100.00
3668;BME280;24099;47.102;15.440;2023-12-07T08:12:15;97385.75;;;-2.32;100.00
3668;BME280;24099;47.102;15.440;2023-12-07T08:14:44;97392.59;;;-2.18;100.00
3668;BME280;24099;47.102;15.440;2023-12-07T08:17:12;97400.97;;;-2.41;100.00
3668;BME280;24099;47.102;15.440;2023-12-07T08:19:42;97396.25;;;-2.35;100.00
3668;BME280;24099;47.102;15.440;2023-12-07T08:22:09;97391.34;;;-2.25;100.00
3668;BME280;24099;47.102;15.440;2023-12-07T08:24:39;97397.16;;;-2.36;100.00
3668;BME280;24099;47.102;15.440;2023-12-07T08:27:07;97392.06;;;-2.50;100.00
3668;BME280;24099;47.102;15.440;2023-12-07T08:29:34;97403.38;;;-2.53;100.00
3668;BME280;24099;47.102;15.440;2023-12-07T08:32:04;97398.97;;;-2.24;100.00
3668;BME280;24099;47.102;15.440;2023-12-07T08:34:32;97396.78;;;-2.30;100.00
3668;BME280;24099;47.102;15.440;2023-12-07T08:36:59;97409.41;;;-2.13;100.00
3668;BME280;24099;47.102;15.440;2023-12-07T08:39:28;97409.31;;;-2.11;100.00
3668;BME280;24099;47.102;15.440;2023-12-07T08:41:56;97408.69;;;-2.15;100.00
3668;BME280;24099;47.102;15.440;2023-12-07T08:44:24;97410.53;;;-2.17;100.00
3668;BME280;24099;47.102;15.440;2023-12-07T08:46:51;97414.63;;;-2.00;100.00
3668;BME280;24099;47.102;15.440;2023-12-07T08:49:20;97416.41;;;-2.00;100.00
3668;BME280;24099;47.102;15.440;2023-12-07T08:51:47;97420.59;;;-1.99;100.00
3668;BME280;24099;47.102;15.440;2023-12-07T08:54:15;97422.06;;;-1.95;100.00
3668;BME280;24099;47.102;15.440;2023-12-07T08:56:44;97422.63;;;-1.78;100.00
3668;BME280;24099;47.102;15.440;2023-12-07T08:59:12;97424.91;;;-1.73;100.00
3668;BME280;24099;47.102;15.440;2023-12-07T09:01:39;97425.09;;;-1.76;100.00
3668;BME280;24099;47.102;15.440;2023-12-07T09:04:07;97433.81;;;-1.64;100.00
3668;BME280;24099;47.102;15.440;2023-12-07T09:06:36;97426.72;;;-1.61;100.00
3668;BME280;24099;47.102;15.440;2023-12-07T09:09:04;97428.28;;;-1.46;100.00
3668;BME280;24099;47.102;15.440;2023-12-07T09:11:31;97431.97;;;-1.50;100.00
3668;BME280;24099;47.102;15.440;2023-12-07T09:13:59;97430.75;;;-1.19;100.00
3668;BME280;24099;47.102;15.440;2023-12-07T09:16:27;97440.88;;;-1.16;100.00
3668;BME280;24099;47.102;15.440;2023-12-07T09:18:54;97433.03;;;-1.14;100.00
3668;BME280;24099;47.102;15.440;2023-12-07T09:21:22;97437.06;;;-1.10;100.00
3668;BME280;24099;47.102;15.440;2023-12-07T09:23:51;97426.50;;;-0.94;100.00
3668;BME280;24099;47.102;15.440;2023-12-07T09:26:18;97438.72;;;-0.96;100.00
3668;BME280;24099;47.102;15.440;2023-12-07T09:28:46;97434.56;;;-0.99;100.00
3668;BME280;24099;47.102;15.440;2023-12-07T09:31:13;97436.44;;;-0.88;100.00
3668;BME280;24099;47.102;15.440;2023-12-07T09:33:43;97429.94;;;-0.81;100.00
3668;BME280;24099;47.102;15.440;2023-12-07T09:36:11;97434.69;;;-0.88;100.00
3668;BME280;24099;47.102;15.440;2023-12-07T09:38:39;97432.56;;;-0.57;100.00
3668;BME280;24099;47.102;15.440;2023-12-07T09:41:08;97437.22;;;-0.50;100.00
3668;BME280;24099;47.102;15.440;2023-12-07T09:43:36;97425.31;;;-0.52;100.00
3668;BME280;24099;47.102;15.440;2023-12-07T09:46:04;97430.59;;;-0.54;100.00
3668;BME280;24099;47.102;15.440;2023-12-07T09:48:32;97432.09;;;-0.39;100.00
3668;BME280;24099;47.102;15.440;2023-12-07T09:51:00;97434.47;;;-0.36;100.00
3668;BME280;24099;47.102;15.440;2023-12-07T09:53:29;97425.25;;;-0.27;100.00
3668;BME280;24099;47.102;15.440;2023-12-07T09:56:01;97430.94;;;-0.22;100.00
3668;BME280;24099;47.102;15.440;2023-12-07T09:58:30;97425.53;;;-0.19;100.00
3668;BME280;24099;47.102;15.440;2023-12-07T10:00:57;97414.53;;;-0.10;100.00
3668;BME280;24099;47.102;15.440;2023-12-07T10:03:25;97417.06;;;0.03;100.00
3668;BME280;24099;47.102;15.440;2023-12-07T10:05:56;97413.16;;;-0.03;100.00
3668;BME280;24099;47.102;15.440;2023-12-07T10:08:28;97406.16;;;0.11;100.00
3668;BME280;24099;47.102;15.440;2023-12-07T10:11:06;97404.19;;;0.14;100.00
3668;BME280;24099;47.102;15.440;2023-12-07T10:13:36;97410.44;;;0.23;100.00
3668;BME280;24099;47.102;15.440;2023-12-07T10:16:09;97408.63;;;0.36;100.00
3668;BME280;24099;47.102;15.440;2023-12-07T10:18:36;97403.44;;;0.36;100.00
3668;BME280;24099;47.102;15.440;2023-12-07T10:21:07;97396.84;;;0.43;100.00
3668;BME280;24099;47.102;15.440;2023-12-07T10:23:36;97392.38;;;0.45;100.00
3668;BME280;24099;47.102;15.440;2023-12-07T10:26:05;97407.03;;;0.57;100.00
3668;BME280;24099;47.102;15.440;2023-12-07T10:28:36;97404.19;;;0.60;100.00
3668;BME280;24099;47.102;15.440;2023-12-07T10:31:04;97406.38;;;0.78;100.00
3668;BME280;24099;47.102;15.440;2023-12-07T10:33:35;97406.69;;;0.84;100.00
3668;BME280;24099;47.102;15.440;2023-12-07T10:36:04;97407.19;;;0.89;100.00
3668;BME280;24099;47.102;15.440;2023-12-07T10:38:32;97404.25;;;0.94;100.00
3668;BME280;24099;47.102;15.440;2023-12-07T10:41:05;97399.06;;;1.05;100.00
3668;BME280;24099;47.102;15.440;2023-12-07T10:43:37;97406.75;;;1.18;100.00
3668;BME280;24099;47.102;15.440;2023-12-07T10:46:06;97402.25;;;1.53;100.00
3668;BME280;24099;47.102;15.440;2023-12-07T10:48:35;97398.13;;;1.40;100.00
3668;BME280;24099;47.102;15.440;2023-12-07T10:51:07;97394.22;;;1.56;100.00
3668;BME280;24099;47.102;15.440;2023-12-07T10:53:40;97395.44;;;1.84;100.00
3668;BME280;24099;47.102;15.440;2023-12-07T10:56:13;97380.13;;;2.13;100.00
3668;BME280;24099;47.102;15.440;2023-12-07T10:58:45;97367.34;;;1.89;100.00
3668;BME280;24099;47.102;15.440;2023-12-07T11:01:14;97366.63;;;1.98;100.00
3668;BME280;24099;47.102;15.440;2023-12-07T11:03:44;97356.50;;;1.95;100.00
3668;BME280;24099;47.102;15.440;2023-12-07T11:06:12;97354.88;;;1.83;100.00
3668;BME280;24099;47.102;15.440;2023-12-07T11:08:41;97325.03;;;2.72;100.00
3668;BME280;24099;47.102;15.440;2023-12-07T11:11:15;97311.91;;;2.73;100.00
3668;BME280;24099;47.102;15.440;2023-12-07T11:13:53;97292.25;;;2.90;100.00
3668;BME280;24099;47.102;15.440;2023-12-07T11:16:35;97295.59;;;3.02;100.00
3668;BME280;24099;47.102;15.440;2023-12-07T11:19:03;97308.34;;;2.74;100.00
3668;BME280;24099;47.102;15.440;2023-12-07T11:21:31;97305.09;;;2.82;100.00
3668;BME280;24099;47.102;15.440;2023-12-07T11:24:00;97306.22;;;2.89;100.00
3668;BME280;24099;47.102;15.440;2023-12-07T11:26:28;97304.25;;;2.82;100.00
3668;BME280;24099;47.102;15.440;2023-12-07T11:28:57;97300.53;;;3.05;100.00
3668;BME280;24099;47.102;15.440;2023-12-07T11:31:26;97292.84;;;2.94;100.00
3668;BME280;24099;47.102;15.440;2023-12-07T11:33:54;97275.47;;;3.73;100.00
3668;BME280;24099;47.102;15.440;2023-12-07T11:36:22;97285.44;;;3.39;100.00
3668;BME280;24099;47.102;15.440;2023-12-07T11:41:54;97296.31;;;3.14;100.00
3668;BME280;24099;47.102;15.440;2023-12-07T11:44:36;97279.97;;;3.90;100.00
3668;BME280;24099;47.102;15.440;2023-12-07T11:47:04;97283.91;;;3.36;100.00
3668;BME280;24099;47.102;15.440;2023-12-07T11:49:32;97284.19;;;3.43;100.00
3668;BME280;24099;47.102;15.440;2023-12-07T11:52:00;97282.72;;;3.79;100.00
3668;BME280;24099;47.102;15.440;2023-12-07T11:54:28;97281.75;;;3.80;100.00
3668;BME280;24099;47.102;15.440;2023-12-07T11:56:58;61886.59;;;-143.61;100.00
3668;BME280;24099;47.102;15.440;2023-12-07T11:59:25;61886.59;;;-143.61;100.00
3668;BME280;24099;47.102;15.440;2023-12-07T12:01:55;61886.59;;;-143.61;100.00
3668;BME280;24099;47.102;15.440;2023-12-07T12:04:27;61886.59;;;-143.61;100.00
3668;BME280;24099;47.102;15.440;2023-12-07T12:06:55;61886.59;;;-143.61;100.00
3668;BME280;24099;47.102;15.440;2023-12-07T12:09:24;61886.59;;;-143.61;100.00
3668;BME280;24099;47.102;15.440;2023-12-07T12:11:52;61886.59;;;-143.61;100.00
3668;BME280;24099;47.102;15.440;2023-12-07T12:14:20;61886.59;;;-143.61;100.00
3668;BME280;24099;47.102;15.440;2023-12-07T12:16:48;61886.59;;;-143.61;100.00
3668;BME280;24099;47.102;15.440;2023-12-07T12:19:19;61886.59;;;-143.61;100.00
3668;BME280;24099;47.102;15.440;2023-12-07T12:21:47;61886.59;;;-143.61;100.00
3668;BME280;24099;47.102;15.440;2023-12-07T12:24:14;61886.59;;;-143.61;100.00
3668;BME280;24099;47.102;15.440;2023-12-07T12:26:43;61886.59;;;-143.61;100.00
3668;BME280;24099;47.102;15.440;2023-12-07T12:29:11;61886.59;;;-143.61;100.00
3668;BME280;24099;47.102;15.440;2023-12-07T12:31:39;61886.59;;;-143.61;100.00
3668;BME280;24099;47.102;15.440;2023-12-07T12:34:07;61886.59;;;-143.61;100.00
3668;BME280;24099;47.102;15.440;2023-12-07T12:36:37;61886.59;;;-143.61;100.00
3668;BME280;24099;47.102;15.440;2023-12-07T12:39:05;61886.59;;;-143.61;100.00
3668;BME280;24099;47.102;15.440;2023-12-07T12:41:34;61886.59;;;-143.61;100.00
3668;BME280;24099;47.102;15.440;2023-12-07T12:44:02;61886.59;;;-143.61;100.00
3668;BME280;24099;47.102;15.440;2023-12-07T12:46:31;61886.59;;;-143.61;100.00
3668;BME280;24099;47.102;15.440;2023-12-07T12:48:59;61886.59;;;-143.61;100.00
3668;BME280;24099;47.102;15.440;2023-12-07T12:51:28;61886.59;;;-143.61;100.00
3668;BME280;24099;47.102;15.440;2023-12-07T12:54:00;61886.59;;;-143.61;100.00
3668;BME280;24099;47.102;15.440;2023-12-07T12:56:28;61886.59;;;-143.61;100.00
3668;BME280;24099;47.102;15.440;2023-12-07T12:58:56;61886.59;;;-143.61;100.00
3668;BME280;24099;47.102;15.440;2023-12-07T13:01:24;61886.59;;;-143.61;100.00